sensor_id;sensor_type;location;lat;lon;timestamp;P1;durP1;ratioP1;P2;durP2;ratioP2
17171;SDS011;8701;50.150;8.756;2023-12-07T00:03:13;7.03;;;5.70;;
17171;SDS011;8701;50.150;8.756;2023-12-07T00:07:16;5.30;;;4.80;;
17171;SDS011;8701;50.150;8.756;2023-12-07T00:11:19;6.97;;;5.33;;
17171;SDS011;8701;50.150;8.756;2023-12-07T00:15:23;7.30;;;5.20;;
17171;SDS011;8701;50.150;8.756;2023-12-07T00:19:26;9.33;;;5.37;;
17171;SDS011;8701;50.150;8.756;2023-12-07T00:23:28;6.63;;;5.00;;
17171;SDS011;8701;50.150;8.756;2023-12-07T00:27:31;7.87;;;5.70;;
17171;SDS011;8701;50.150;8.756;2023-12-07T00:31:33;7.90;;;5.57;;
17171;SDS011;8701;50.150;8.756;2023-12-07T00:35:36;6.70;;;5.60;;
17171;SDS011;8701;50.150;8.756;2023-12-07T00:39:40;6.50;;;4.80;;
17171;SDS011;8701;50.150;8.756;2023-12-07T00:43:42;8.37;;;5.67;;
17171;SDS011;8701;50.150;8.756;2023-12-07T00:47:44;7.63;;;5.80;;
17171;SDS011;8701;50.150;8.756;2023-12-07T00:51:48;9.40;;;5.90;;
17171;SDS011;8701;50.150;8.756;2023-12-07T00:55:50;7.87;;;5.20;;
17171;SDS011;8701;50.150;8.756;2023-12-07T00:59:53;6.00;;;5.10;;
17171;SDS011;8701;50.150;8.756;2023-12-07T01:03:55;6.10;;;5.37;;
17171;SDS011;8701;50.150;8.756;2023-12-07T01:07:58;9.37;;;5.43;;
17171;SDS011;8701;50.150;8.756;2023-12-07T01:12:01;8.70;;;5.70;;
17171;SDS011;8701;50.150;8.756;2023-12-07T01:16:03;13.67;;;5.50;;
17171;SDS011;8701;50.150;8.756;2023-12-07T01:20:06;8.23;;;5.87;;
17171;SDS011;8701;50.150;8.756;2023-12-07T01:24:14;9.67;;;5.93;;
17171;SDS011;8701;50.150;8.756;2023-12-07T01:28:16;8.10;;;6.37;;
17171;SDS011;8701;50.150;8.756;2023-12-07T01:32:18;9.10;;;5.73;;
17171;SDS011;8701;50.150;8.756;2023-12-07T01:36:20;9.70;;;6.50;;
17171;SDS011;8701;50.150;8.756;2023-12-07T01:40:24;9.40;;;6.53;;
17171;SDS011;8701;50.150;8.756;2023-12-07T01:44:26;13.50;;;6.90;;
17171;SDS011;8701;50.150;8.756;2023-12-07T01:48:29;9.53;;;6.90;;
17171;SDS011;8701;50.150;8.756;2023-12-07T01:52:31;17.70;;;7.33;;
17171;SDS011;8701;50.150;8.756;2023-12-07T01:56:37;8.53;;;6.33;;
17171;SDS011;8701;50.150;8.756;2023-12-07T02:00:40;10.20;;;6.33;;
17171;SDS011;8701;50.150;8.756;2023-12-07T02:04:42;10.00;;;6.50;;
17171;SDS011;8701;50.150;8.756;2023-12-07T02:08:46;9.40;;;6.50;;
17171;SDS011;8701;50.150;8.756;2023-12-07T02:12:50;9.93;;;6.10;;
17171;SDS011;8701;50.150;8.756;2023-12-07T02:16:54;8.50;;;5.87;;
17171;SDS011;8701;50.150;8.756;2023-12-07T02:21:03;11.47;;;6.67;;
17171;SDS011;8701;50.150;8.756;2023-12-07T02:25:15;8.70;;;7.03;;
17171;SDS011;8701;50.150;8.756;2023-12-07T02:29:22;10.97;;;6.43;;
17171;SDS011;8701;50.150;8.756;2023-12-07T02:33:24;14.50;;;7.70;;
17171;SDS011;8701;50.150;8.756;2023-12-07T02:37:27;9.27;;;6.40;;
17171;SDS011;8701;50.150;8.756;2023-12-07T02:41:32;10.30;;;7.03;;
17171;SDS011;8701;50.150;8.756;2023-12-07T02:45:36;10.60;;;5.90;;
17171;SDS011;8701;50.150;8.756;2023-12-07T02:49:39;11.47;;;7.20;;
17171;SDS011;8701;50.150;8.756;2023-12-07T02:53:41;12.87;;;7.10;;
17171;SDS011;8701;50.150;8.756;2023-12-07T02:57:43;11.03;;;7.20;;
17171;SDS011;8701;50.150;8.756;2023-12-07T03:01:47;9.83;;;7.03;;
17171;SDS011;8701;50.150;8.756;2023-12-07T03:05:49;11.00;;;6.67;;
17171;SDS011;8701;50.150;8.756;2023-12-07T03:09:51;9.53;;;7.13;;
17171;SDS011;8701;50.150;8.756;2023-12-07T03:13:53;9.43;;;6.50;;
17171;SDS011;8701;50.150;8.756;2023-12-07T03:17:57;11.93;;;7.70;;
17171;SDS011;8701;50.150;8.756;2023-12-07T03:21:59;10.17;;;6.57;;
17171;SDS011;8701;50.150;8.756;2023-12-07T03:26:01;20.13;;;7.10;;
17171;SDS011;8701;50.150;8.756;2023-12-07T03:30:04;11.97;;;7.27;;
17171;SDS011;8701;50.150;8.756;2023-12-07T03:34:09;15.60;;;7.47;;
17171;SDS011;8701;50.150;8.756;2023-12-07T03:38:12;10.93;;;7.40;;
17171;SDS011;8701;50.150;8.756;2023-12-07T03:42:14;13.10;;;6.93;;
17171;SDS011;8701;50.150;8.756;2023-12-07T03:46:16;11.87;;;6.70;;
17171;SDS011;8701;50.150;8.756;2023-12-07T03:50:20;16.43;;;7.17;;
17171;SDS011;8701;50.150;8.756;2023-12-07T03:54:22;12.07;;;6.80;;
17171;SDS011;8701;50.150;8.756;2023-12-07T03:58:24;8.57;;;6.03;;
17171;SDS011;8701;50.150;8.756;2023-12-07T04:02:26;14.07;;;7.10;;
17171;SDS011;8701;50.150;8.756;2023-12-07T04:06:34;9.53;;;6.10;;
17171;SDS011;8701;50.150;8.756;2023-12-07T04:10:36;11.13;;;6.70;;
17171;SDS011;8701;50.150;8.756;2023-12-07T04:14:38;10.60;;;6.50;;
17171;SDS011;8701;50.150;8.756;2023-12-07T04:18:41;11.27;;;7.00;;
17171;SDS011;8701;50.150;8.756;2023-12-07T04:22:45;10.43;;;7.00;;
17171;SDS011;8701;50.150;8.756;2023-12-07T04:26:48;9.30;;;6.50;;
17171;SDS011;8701;50.150;8.756;2023-12-07T04:30:50;12.03;;;6.90;;
17171;SDS011;8701;50.150;8.756;2023-12-07T04:34:53;10.57;;;6.90;;
17171;SDS011;8701;50.150;8.756;2023-12-07T04:38:56;7.97;;;6.17;;
17171;SDS011;8701;50.150;8.756;2023-12-07T04:42:58;11.07;;;7.33;;
17171;SDS011;8701;50.150;8.756;2023-12-07T04:47:01;8.23;;;6.40;;
17171;SDS011;8701;50.150;8.756;2023-12-07T04:51:03;13.07;;;6.30;;
17171;SDS011;8701;50.150;8.756;2023-12-07T04:55:07;9.73;;;6.63;;
17171;SDS011;8701;50.150;8.756;2023-12-07T04:59:10;10.53;;;6.27;;
17171;SDS011;8701;50.150;8.756;2023-12-07T05:03:12;10.93;;;7.67;;
17171;SDS011;8701;50.150;8.756;2023-12-07T05:07:14;10.90;;;7.27;;
17171;SDS011;8701;50.150;8.756;2023-12-07T05:11:18;10.30;;;6.60;;
17171;SDS011;8701;50.150;8.756;2023-12-07T05:15:21;11.33;;;7.30;;
17171;SDS011;8701;50.150;8.756;2023-12-07T05:19:23;11.83;;;7.83;;
17171;SDS011;8701;50.150;8.756;2023-12-07T05:23:25;11.47;;;7.27;;
17171;SDS011;8701;50.150;8.756;2023-12-07T05:27:29;11.57;;;7.90;;
17171;SDS011;8701;50.150;8.756;2023-12-07T05:31:31;10.60;;;7.80;;
17171;SDS011;8701;50.150;8.756;2023-12-07T05:35:33;11.10;;;7.03;;
17171;SDS011;8701;50.150;8.756;2023-12-07T05:39:36;10.90;;;7.73;;
17171;SDS011;8701;50.150;8.756;2023-12-07T05:43:41;11.70;;;7.80;;
17171;SDS011;8701;50.150;8.756;2023-12-07T05:47:43;10.00;;;7.10;;
17171;SDS011;8701;50.150;8.756;2023-12-07T05:51:45;14.70;;;7.40;;
17171;SDS011;8701;50.150;8.756;2023-12-07T05:55:48;11.40;;;7.10;;
17171;SDS011;8701;50.150;8.756;2023-12-07T05:59:51;12.73;;;8.30;;
17171;SDS011;8701;50.150;8.756;2023-12-07T06:03:53;12.47;;;7.13;;
17171;SDS011;8701;50.150;8.756;2023-12-07T06:07:56;12.47;;;8.37;;
17171;SDS011;8701;50.150;8.756;2023-12-07T06:11:58;10.27;;;6.93;;
17171;SDS011;8701;50.150;8.756;2023-12-07T06:16:01;10.20;;;6.73;;
17171;SDS011;8701;50.150;8.756;2023-12-07T06:20:04;12.27;;;7.93;;
17171;SDS011;8701;50.150;8.756;2023-12-07T06:24:07;10.30;;;7.30;;
17171;SDS011;8701;50.150;8.756;2023-12-07T06:28:09;12.07;;;7.53;;
17171;SDS011;8701;50.150;8.756;2023-12-07T06:32:13;10.90;;;7.57;;
17171;SDS011;8701;50.150;8.756;2023-12-07T06:36:20;11.00;;;7.20;;
17171;SDS011;8701;50.150;8.756;2023-12-07T06:40:22;11.20;;;7.57;;
17171;SDS011;8701;50.150;8.756;2023-12-07T06:44:25;10.33;;;6.40;;
17171;SDS011;8701;50.150;8.756;2023-12-07T06:48:28;13.40;;;8.60;;
17171;SDS011;8701;50.150;8.756;2023-12-07T06:52:31;11.47;;;7.07;;
17171;SDS011;8701;50.150;8.756;2023-12-07T06:56:33;11.93;;;7.80;;
17171;SDS011;8701;50.150;8.756;2023-12-07T07:00:35;11.07;;;7.70;;
17171;SDS011;8701;50.150;8.756;2023-12-07T07:04:39;11.33;;;6.83;;
17171;SDS011;8701;50.150;8.756;2023-12-07T07:08:41;11.83;;;7.10;;
17171;SDS011;8701;50.150;8.756;2023-12-07T07:12:43;10.20;;;7.17;;
17171;SDS011;8701;50.150;8.756;2023-12-07T07:16:45;12.73;;;7.43;;
17171;SDS011;8701;50.150;8.756;2023-12-07T07:20:49;10.10;;;7.20;;
17171;SDS011;8701;50.150;8.756;2023-12-07T07:24:51;16.27;;;7.70;;
17171;SDS011;8701;50.150;8.756;2023-12-07T07:28:54;13.07;;;7.63;;
17171;SDS011;8701;50.150;8.756;2023-12-07T07:32:56;15.10;;;7.67;;
17171;SDS011;8701;50.150;8.756;2023-12-07T07:36:59;12.57;;;8.00;;
17171;SDS011;8701;50.150;8.756;2023-12-07T07:41:01;14.37;;;8.57;;
17171;SDS011;8701;50.150;8.756;2023-12-07T07:45:04;14.93;;;8.63;;
17171;SDS011;8701;50.150;8.756;2023-12-07T07:49:07;12.47;;;8.80;;
17171;SDS011;8701;50.150;8.756;2023-12-07T07:53:11;21.33;;;10.80;;
17171;SDS011;8701;50.150;8.756;2023-12-07T07:57:13;15.67;;;9.17;;
17171;SDS011;8701;50.150;8.756;2023-12-07T08:01:15;13.30;;;8.70;;
17171;SDS011;8701;50.150;8.756;2023-12-07T08:05:17;14.83;;;8.53;;
17171;SDS011;8701;50.150;8.756;2023-12-07T08:09:21;13.90;;;8.47;;
17171;SDS011;8701;50.150;8.756;2023-12-07T08:13:23;15.40;;;8.73;;
17171;SDS011;8701;50.150;8.756;2023-12-07T08:17:25;15.57;;;9.33;;
17171;SDS011;8701;50.150;8.756;2023-12-07T08:21:28;17.47;;;10.00;;
17171;SDS011;8701;50.150;8.756;2023-12-07T08:25:32;18.13;;;9.50;;
17171;SDS011;8701;50.150;8.756;2023-12-07T08:29:34;17.80;;;9.83;;
17171;SDS011;8701;50.150;8.756;2023-12-07T08:33:37;15.37;;;10.17;;
17171;SDS011;8701;50.150;8.756;2023-12-07T08:37:41;20.67;;;11.50;;
17171;SDS011;8701;50.150;8.756;2023-12-07T08:41:44;14.87;;;10.13;;
17171;SDS011;8701;50.150;8.756;2023-12-07T08:45:46;15.90;;;9.87;;
17171;SDS011;8701;50.150;8.756;2023-12-07T08:49:48;18.37;;;10.20;;
17171;SDS011;8701;50.150;8.756;2023-12-07T08:53:51;16.57;;;10.40;;
17171;SDS011;8701;50.150;8.756;2023-12-07T08:57:55;17.80;;;10.40;;
17171;SDS011;8701;50.150;8.756;2023-12-07T09:01:57;20.87;;;10.60;;
17171;SDS011;8701;50.150;8.756;2023-12-07T09:06:00;18.33;;;11.10;;
17171;SDS011;8701;50.150;8.756;2023-12-07T09:10:03;17.80;;;9.63;;
17171;SDS011;8701;50.150;8.756;2023-12-07T09:14:07;21.30;;;11.10;;
17171;SDS011;8701;50.150;8.756;2023-12-07T09:18:10;31.83;;;10.47;;
17171;SDS011;8701;50.150;8.756;2023-12-07T09:22:12;17.47;;;10.63;;
17171;SDS011;8701;50.150;8.756;2023-12-07T09:26:16;18.10;;;10.83;;
17171;SDS011;8701;50.150;8.756;2023-12-07T09:30:20;17.37;;;10.47;;
17171;SDS011;8701;50.150;8.756;2023-12-07T09:34:22;20.37;;;11.37;;
17171;SDS011;8701;50.150;8.756;2023-12-07T09:38:24;17.40;;;11.03;;
17171;SDS011;8701;50.150;8.756;2023-12-07T09:42:29;19.47;;;11.27;;
17171;SDS011;8701;50.150;8.756;2023-12-07T09:46:33;29.47;;;12.37;;
17171;SDS011;8701;50.150;8.756;2023-12-07T09:50:36;26.33;;;13.13;;
17171;SDS011;8701;50.150;8.756;2023-12-07T09:54:40;27.07;;;12.20;;
17171;SDS011;8701;50.150;8.756;2023-12-07T09:58:43;19.77;;;11.80;;
17171;SDS011;8701;50.150;8.756;2023-12-07T10:02:47;23.27;;;12.57;;
17171;SDS011;8701;50.150;8.756;2023-12-07T10:06:50;23.67;;;12.90;;
17171;SDS011;8701;50.150;8.756;2023-12-07T10:11:01;22.77;;;12.57;;
17171;SDS011;8701;50.150;8.756;2023-12-07T10:15:11;23.37;;;13.37;;
17171;SDS011;8701;50.150;8.756;2023-12-07T10:19:16;24.27;;;12.40;;
17171;SDS011;8701;50.150;8.756;2023-12-07T10:23:22;26.20;;;14.97;;
17171;SDS011;8701;50.150;8.756;2023-12-07T10:27:25;29.40;;;14.03;;
17171;SDS011;8701;50.150;8.756;2023-12-07T10:31:28;33.90;;;17.00;;
17171;SDS011;8701;50.150;8.756;2023-12-07T10:35:33;30.13;;;16.00;;
17171;SDS011;8701;50.150;8.756;2023-12-07T10:39:39;32.27;;;15.93;;
17171;SDS011;8701;50.150;8.756;2023-12-07T10:43:42;30.60;;;17.10;;
17171;SDS011;8701;50.150;8.756;2023-12-07T10:47:46;31.47;;;16.00;;
17171;SDS011;8701;50.150;8.756;2023-12-07T10:51:51;33.97;;;16.87;;
17171;SDS011;8701;50.150;8.756;2023-12-07T10:56:00;42.33;;;18.10;;
17171;SDS011;8701;50.150;8.756;2023-12-07T11:00:06;29.97;;;16.40;;
17171;SDS011;8701;50.150;8.756;2023-12-07T11:04:10;31.50;;;15.83;;
17171;SDS011;8701;50.150;8.756;2023-12-07T11:08:16;37.57;;;16.80;;
17171;SDS011;8701;50.150;8.756;2023-12-07T11:12:28;32.43;;;17.37;;
17171;SDS011;8701;50.150;8.756;2023-12-07T11:16:35;35.40;;;17.20;;
17171;SDS011;8701;50.150;8.756;2023-12-07T11:20:41;38.20;;;17.73;;
17171;SDS011;8701;50.150;8.756;2023-12-07T11:24:56;28.37;;;15.27;;
17171;SDS011;8701;50.150;8.756;2023-12-07T11:29:01;29.47;;;15.80;;
17171;SDS011;8701;50.150;8.756;2023-12-07T11:33:03;33.60;;;15.70;;
17171;SDS011;8701;50.150;8.756;2023-12-07T11:37:06;28.37;;;15.37;;
17171;SDS011;8701;50.150;8.756;2023-12-07T11:41:10;28.97;;;15.57;;
17171;SDS011;8701;50.150;8.756;2023-12-07T11:45:13;24.50;;;14.30;;
17171;SDS011;8701;50.150;8.756;2023-12-07T11:49:15;29.67;;;15.93;;
17171;SDS011;8701;50.150;8.756;2023-12-07T11:53:19;24.10;;;14.83;;
17171;SDS011;8701;50.150;8.756;2023-12-07T11:57:24;28.30;;;15.03;;
17171;SDS011;8701;50.150;8.756;2023-12-07T12:01:26;24.73;;;14.33;;
17171;SDS011;8701;50.150;8.756;2023-12-07T12:05:31;27.43;;;14.37;;
17171;SDS011;8701;50.150;8.756;2023-12-07T12:09:33;21.97;;;11.97;;
17171;SDS011;8701;50.150;8.756;2023-12-07T12:13:37;25.23;;;13.80;;
17171;SDS011;8701;50.150;8.756;2023-12-07T12:17:39;24.50;;;12.70;;
17171;SDS011;8701;50.150;8.756;2023-12-07T12:21:43;20.37;;;12.17;;
17171;SDS011;8701;50.150;8.756;2023-12-07T12:25:45;24.33;;;11.80;;
17171;SDS011;8701;50.150;8.756;2023-12-07T12:29:49;20.13;;;11.90;;
17171;SDS011;8701;50.150;8.756;2023-12-07T12:33:53;20.20;;;11.37;;
17171;SDS011;8701;50.150;8.756;2023-12-07T12:37:55;25.57;;;13.23;;
17171;SDS011;8701;50.150;8.756;2023-12-07T12:41:57;21.00;;;11.90;;
17171;SDS011;8701;50.150;8.756;2023-12-07T12:46:02;21.77;;;12.80;;
17171;SDS011;8701;50.150;8.756;2023-12-07T12:50:06;20.30;;;12.20;;
17171;SDS011;8701;50.150;8.756;2023-12-07T12:54:08;19.47;;;12.10;;
17171;SDS011;8701;50.150;8.756;2023-12-07T12:58:11;20.53;;;12.77;;
17171;SDS011;8701;50.150;8.756;2023-12-07T13:02:15;19.20;;;11.77;;
17171;SDS011;8701;50.150;8.756;2023-12-07T13:06:19;24.30;;;12.90;;
17171;SDS011;8701;50.150;8.756;2023-12-07T13:10:21;20.93;;;12.13;;
17171;SDS011;8701;50.150;8.756;2023-12-07T13:14:23;20.13;;;11.97;;
17171;SDS011;8701;50.150;8.756;2023-12-07T13:18:27;23.53;;;13.40;;
17171;SDS011;8701;50.150;8.756;2023-12-07T13:22:29;17.53;;;11.57;;
17171;SDS011;8701;50.150;8.756;2023-12-07T13:26:31;21.87;;;12.60;;
17171;SDS011;8701;50.150;8.756;2023-12-07T13:30:34;19.87;;;12.73;;
17171;SDS011;8701;50.150;8.756;2023-12-07T13:34:38;20.03;;;12.23;;
17171;SDS011;8701;50.150;8.756;2023-12-07T13:38:40;20.47;;;12.47;;
17171;SDS011;8701;50.150;8.756;2023-12-07T13:42:43;22.67;;;12.63;;
17171;SDS011;8701;50.150;8.756;2023-12-07T13:46:45;22.90;;;12.73;;
17171;SDS011;8701;50.150;8.756;2023-12-07T13:50:50;21.97;;;12.63;;
17171;SDS011;8701;50.150;8.756;2023-12-07T13:54:52;25.90;;;14.83;;
17171;SDS011;8701;50.150;8.756;2023-12-07T13:58:54;30.90;;;13.67;;
17171;SDS011;8701;50.150;8.756;2023-12-07T14:02:57;16.67;;;10.67;;
17171;SDS011;8701;50.150;8.756;2023-12-07T14:07:07;20.37;;;10.77;;
17171;SDS011;8701;50.150;8.756;2023-12-07T14:11:10;23.30;;;11.80;;
17171;SDS011;8701;50.150;8.756;2023-12-07T14:15:13;20.57;;;12.43;;
17171;SDS011;8701;50.150;8.756;2023-12-07T14:19:15;24.87;;;13.20;;
17171;SDS011;8701;50.150;8.756;2023-12-07T14:23:18;25.40;;;13.90;;
17171;SDS011;8701;50.150;8.756;2023-12-07T14:27:21;26.50;;;13.80;;
17171;SDS011;8701;50.150;8.756;2023-12-07T14:31:23;23.63;;;13.20;;
17171;SDS011;8701;50.150;8.756;2023-12-07T14:35:25;24.40;;;12.70;;
17171;SDS011;8701;50.150;8.756;2023-12-07T14:39:29;20.73;;;12.90;;
17171;SDS011;8701;50.150;8.756;2023-12-07T14:43:31;24.90;;;12.03;;
17171;SDS011;8701;50.150;8.756;2023-12-07T14:47:33;18.60;;;11.47;;
17171;SDS011;8701;50.150;8.756;2023-12-07T14:51:36;19.83;;;12.57;;
17171;SDS011;8701;50.150;8.756;2023-12-07T14:55:40;17.47;;;10.93;;
17171;SDS011;8701;50.150;8.756;2023-12-07T14:59:43;25.70;;;12.23;;
17171;SDS011;8701;50.150;8.756;2023-12-07T15:03:45;17.17;;;11.20;;
17171;SDS011;8701;50.150;8.756;2023-12-07T15:07:48;19.13;;;10.90;;
17171;SDS011;8701;50.150;8.756;2023-12-07T15:11:52;22.10;;;12.00;;
17171;SDS011;8701;50.150;8.756;2023-12-07T15:15:56;16.10;;;10.40;;
17171;SDS011;8701;50.150;8.756;2023-12-07T15:19:58;17.13;;;10.60;;
17171;SDS011;8701;50.150;8.756;2023-12-07T15:24:00;13.87;;;9.43;;
17171;SDS011;8701;50.150;8.756;2023-12-07T15:28:05;12.10;;;8.73;;
17171;SDS011;8701;50.150;8.756;2023-12-07T15:32:11;14.27;;;9.30;;
17171;SDS011;8701;50.150;8.756;2023-12-07T15:36:13;11.90;;;7.47;;
17171;SDS011;8701;50.150;8.756;2023-12-07T15:40:15;8.77;;;6.50;;
17171;SDS011;8701;50.150;8.756;2023-12-07T15:44:19;8.37;;;6.40;;
17171;SDS011;8701;50.150;8.756;2023-12-07T15:48:21;13.93;;;6.60;;
17171;SDS011;8701;50.150;8.756;2023-12-07T15:52:23;9.43;;;6.90;;
17171;SDS011;8701;50.150;8.756;2023-12-07T15:56:26;9.57;;;6.27;;
17171;SDS011;8701;50.150;8.756;2023-12-07T16:00:30;7.90;;;5.40;;
17171;SDS011;8701;50.150;8.756;2023-12-07T16:04:32;9.73;;;6.20;;
17171;SDS011;8701;50.150;8.756;2023-12-07T16:08:34;8.30;;;5.93;;
17171;SDS011;8701;50.150;8.756;2023-12-07T16:12:37;6.63;;;5.30;;
17171;SDS011;8701;50.150;8.756;2023-12-07T16:16:41;10.77;;;5.67;;
17171;SDS011;8701;50.150;8.756;2023-12-07T16:20:43;7.00;;;5.10;;
17171;SDS011;8701;50.150;8.756;2023-12-07T16:24:45;6.37;;;4.90;;
17171;SDS011;8701;50.150;8.756;2023-12-07T16:28:48;7.70;;;4.97;;
17171;SDS011;8701;50.150;8.756;2023-12-07T16:32:52;8.33;;;5.37;;
17171;SDS011;8701;50.150;8.756;2023-12-07T16:36:54;9.63;;;6.00;;
17171;SDS011;8701;50.150;8.756;2023-12-07T16:40:56;7.63;;;5.70;;
17171;SDS011;8701;50.150;8.756;2023-12-07T16:44:58;6.90;;;5.50;;
17171;SDS011;8701;50.150;8.756;2023-12-07T16:49:02;10.93;;;6.73;;
17171;SDS011;8701;50.150;8.756;2023-12-07T16:53:05;8.73;;;5.83;;
17171;SDS011;8701;50.150;8.756;2023-12-07T16:57:07;9.27;;;5.77;;
17171;SDS011;8701;50.150;8.756;2023-12-07T17:01:10;8.80;;;5.87;;
17171;SDS011;8701;50.150;8.756;2023-12-07T17:05:13;7.97;;;5.57;;
17171;SDS011;8701;50.150;8.756;2023-12-07T17:09:15;6.33;;;5.37;;
17171;SDS011;8701;50.150;8.756;2023-12-07T17:13:18;7.17;;;5.20;;
17171;SDS011;8701;50.150;8.756;2023-12-07T17:17:20;6.40;;;5.17;;
17171;SDS011;8701;50.150;8.756;2023-12-07T17:21:24;8.53;;;6.37;;
17171;SDS011;8701;50.150;8.756;2023-12-07T17:25:27;9.90;;;6.20;;
17171;SDS011;8701;50.150;8.756;2023-12-07T17:29:29;8.77;;;6.30;;
17171;SDS011;8701;50.150;8.756;2023-12-07T17:33:31;9.10;;;6.20;;
17171;SDS011;8701;50.150;8.756;2023-12-07T17:37:35;11.27;;;6.70;;
17171;SDS011;8701;50.150;8.756;2023-12-07T17:41:38;9.17;;;6.73;;
17171;SDS011;8701;50.150;8.756;2023-12-07T17:45:40;8.33;;;5.70;;
17171;SDS011;8701;50.150;8.756;2023-12-07T17:49:42;10.37;;;6.70;;
17171;SDS011;8701;50.150;8.756;2023-12-07T17:53:46;9.40;;;6.60;;
17171;SDS011;8701;50.150;8.756;2023-12-07T17:57:48;11.83;;;7.63;;
17171;SDS011;8701;50.150;8.756;2023-12-07T18:01:50;10.20;;;7.47;;
17171;SDS011;8701;50.150;8.756;2023-12-07T18:05:52;10.50;;;7.23;;
17171;SDS011;8701;50.150;8.756;2023-12-07T18:09:56;18.87;;;10.50;;
17171;SDS011;8701;50.150;8.756;2023-12-07T18:13:58;15.63;;;9.67;;
17171;SDS011;8701;50.150;8.756;2023-12-07T18:18:01;15.07;;;9.67;;
17171;SDS011;8701;50.150;8.756;2023-12-07T18:22:03;10.73;;;7.60;;
17171;SDS011;8701;50.150;8.756;2023-12-07T18:26:08;9.43;;;6.77;;
17171;SDS011;8701;50.150;8.756;2023-12-07T18:30:12;9.53;;;6.77;;
17171;SDS011;8701;50.150;8.756;2023-12-07T18:34:14;10.70;;;6.97;;
17171;SDS011;8701;50.150;8.756;2023-12-07T18:38:17;10.57;;;7.00;;
17171;SDS011;8701;50.150;8.756;2023-12-07T18:42:20;9.03;;;6.20;;
17171;SDS011;8701;50.150;8.756;2023-12-07T18:46:22;10.73;;;7.33;;
17171;SDS011;8701;50.150;8.756;2023-12-07T18:50:25;9.57;;;6.87;;
17171;SDS011;8701;50.150;8.756;2023-12-07T18:54:27;12.83;;;7.77;;
17171;SDS011;8701;50.150;8.756;2023-12-07T18:58:35;13.30;;;8.50;;
17171;SDS011;8701;50.150;8.756;2023-12-07T19:02:37;12.93;;;8.27;;
17171;SDS011;8701;50.150;8.756;2023-12-07T19:06:40;9.80;;;6.90;;
17171;SDS011;8701;50.150;8.756;2023-12-07T19:10:42;12.60;;;7.60;;
17171;SDS011;8701;50.150;8.756;2023-12-07T19:14:46;11.27;;;7.43;;
17171;SDS011;8701;50.150;8.756;2023-12-07T19:18:48;13.80;;;7.23;;
17171;SDS011;8701;50.150;8.756;2023-12-07T19:22:50;12.80;;;8.43;;
17171;SDS011;8701;50.150;8.756;2023-12-07T19:26:53;13.47;;;8.07;;
17171;SDS011;8701;50.150;8.756;2023-12-07T19:30:56;22.00;;;10.80;;
17171;SDS011;8701;50.150;8.756;2023-12-07T19:34:59;21.90;;;11.43;;
17171;SDS011;8701;50.150;8.756;2023-12-07T19:39:01;16.87;;;10.40;;
17171;SDS011;8701;50.150;8.756;2023-12-07T19:43:04;16.07;;;9.87;;
17171;SDS011;8701;50.150;8.756;2023-12-07T19:47:07;18.53;;;9.23;;
17171;SDS011;8701;50.150;8.756;2023-12-07T19:51:09;19.77;;;10.60;;
17171;SDS011;8701;50.150;8.756;2023-12-07T19:55:12;17.87;;;10.00;;
17171;SDS011;8701;50.150;8.756;2023-12-07T19:59:15;14.70;;;9.70;;
17171;SDS011;8701;50.150;8.756;2023-12-07T20:03:19;21.20;;;10.10;;
17171;SDS011;8701;50.150;8.756;2023-12-07T20:07:21;17.97;;;10.23;;
17171;SDS011;8701;50.150;8.756;2023-12-07T20:11:23;19.27;;;10.87;;
17171;SDS011;8701;50.150;8.756;2023-12-07T20:15:25;17.63;;;10.60;;
17171;SDS011;8701;50.150;8.756;2023-12-07T20:19:29;20.50;;;11.00;;
17171;SDS011;8701;50.150;8.756;2023-12-07T20:23:32;20.53;;;10.57;;
17171;SDS011;8701;50.150;8.756;2023-12-07T20:27:36;16.40;;;9.10;;
17171;SDS011;8701;50.150;8.756;2023-12-07T20:31:39;15.27;;;9.03;;
17171;SDS011;8701;50.150;8.756;2023-12-07T20:35:42;15.67;;;8.93;;
17171;SDS011;8701;50.150;8.756;2023-12-07T20:39:45;16.80;;;9.17;;
17171;SDS011;8701;50.150;8.756;2023-12-07T20:43:47;14.67;;;9.10;;
17171;SDS011;8701;50.150;8.756;2023-12-07T20:47:49;14.97;;;9.37;;
17171;SDS011;8701;50.150;8.756;2023-12-07T20:51:53;15.53;;;9.60;;
17171;SDS011;8701;50.150;8.756;2023-12-07T20:55:55;12.87;;;8.80;;
17171;SDS011;8701;50.150;8.756;2023-12-07T20:59:57;19.87;;;9.77;;
17171;SDS011;8701;50.150;8.756;2023-12-07T21:03:59;18.70;;;10.23;;
17171;SDS011;8701;50.150;8.756;2023-12-07T21:08:03;16.93;;;9.30;;
17171;SDS011;8701;50.150;8.756;2023-12-07T21:12:05;16.90;;;9.80;;
17171;SDS011;8701;50.150;8.756;2023-12-07T21:16:08;20.53;;;10.73;;
17171;SDS011;8701;50.150;8.756;2023-12-07T21:20:10;16.67;;;9.40;;
17171;SDS011;8701;50.150;8.756;2023-12-07T21:24:13;19.70;;;10.80;;
17171;SDS011;8701;50.150;8.756;2023-12-07T21:28:16;18.07;;;9.10;;
17171;SDS011;8701;50.150;8.756;2023-12-07T21:32:18;16.70;;;9.97;;
17171;SDS011;8701;50.150;8.756;2023-12-07T21:36:21;13.43;;;8.00;;
17171;SDS011;8701;50.150;8.756;2023-12-07T21:40:24;15.60;;;9.00;;
17171;SDS011;8701;50.150;8.756;2023-12-07T21:44:27;15.27;;;9.70;;
17171;SDS011;8701;50.150;8.756;2023-12-07T21:48:29;18.30;;;8.57;;
17171;SDS011;8701;50.150;8.756;2023-12-07T21:52:31;15.63;;;9.03;;
17171;SDS011;8701;50.150;8.756;2023-12-07T21:56:36;15.83;;;9.47;;
17171;SDS011;8701;50.150;8.756;2023-12-07T22:00:38;18.90;;;9.60;;
17171;SDS011;8701;50.150;8.756;2023-12-07T22:04:40;15.27;;;9.07;;
17171;SDS011;8701;50.150;8.756;2023-12-07T22:08:43;17.30;;;9.40;;
17171;SDS011;8701;50.150;8.756;2023-12-07T22:12:49;16.17;;;9.57;;
17171;SDS011;8701;50.150;8.756;2023-12-07T22:16:52;14.27;;;8.53;;
17171;SDS011;8701;50.150;8.756;2023-12-07T22:20:54;22.00;;;10.37;;
17171;SDS011;8701;50.150;8.756;2023-12-07T22:24:56;23.13;;;10.10;;
17171;SDS011;8701;50.150;8.756;2023-12-07T22:29:00;15.87;;;9.40;;
17171;SDS011;8701;50.150;8.756;2023-12-07T22:33:02;14.37;;;9.33;;
17171;SDS011;8701;50.150;8.756;2023-12-07T22:37:05;13.70;;;8.50;;
17171;SDS011;8701;50.150;8.756;2023-12-07T22:41:11;18.20;;;9.30;;
17171;SDS011;8701;50.150;8.756;2023-12-07T22:45:21;16.93;;;9.60;;
17171;SDS011;8701;50.150;8.756;2023-12-07T22:49:27;14.33;;;9.30;;
17171;SDS011;8701;50.150;8.756;2023-12-07T22:53:31;16.00;;;8.83;;
17171;SDS011;8701;50.150;8.756;2023-12-07T22:57:34;18.37;;;10.07;;
17171;SDS011;8701;50.150;8.756;2023-12-07T23:01:38;16.37;;;9.60;;
17171;SDS011;8701;50.150;8.756;2023-12-07T23:05:40;16.07;;;9.40;;
17171;SDS011;8701;50.150;8.756;2023-12-07T23:09:42;13.27;;;8.90;;
17171;SDS011;8701;50.150;8.756;2023-12-07T23:13:47;17.17;;;9.97;;
17171;SDS011;8701;50.150;8.756;2023-12-07T23:17:50;13.40;;;8.90;;
17171;SDS011;8701;50.150;8.756;2023-12-07T23:21:52;16.10;;;10.53;;
17171;SDS011;8701;50.150;8.756;2023-12-07T23:25:55;14.77;;;9.23;;
17171;SDS011;8701;50.150;8.756;2023-12-07T23:29:57;17.73;;;10.20;;
17171;SDS011;8701;50.150;8.756;2023-12-07T23:34:01;16.20;;;9.30;;
17171;SDS011;8701;50.150;8.756;2023-12-07T23:38:03;16.80;;;9.60;;
17171;SDS011;8701;50.150;8.756;2023-12-07T23:42:06;12.80;;;8.90;;
17171;SDS011;8701;50.150;8.756;2023-12-07T23:46:09;14.10;;;8.50;;
17171;SDS011;8701;50.150;8.756;2023-12-07T23:50:13;16.33;;;9.23;;
17171;SDS011;8701;50.150;8.756;2023-12-07T23:54:16;16.20;;;8.67;;
17171;SDS011;8701;50.150;8.756;2023-12-07T23:58:18;13.90;;;9.27;;
